createdAt,value
2022-11-18T00:04:39.214Z,87.25
2022-11-18T00:09:41.080Z,87.42
2022-11-18T00:14:42.938Z,87.31
2022-11-18T00:19:44.832Z,87.63
2022-11-18T00:24:46.723Z,87.73
2022-11-18T00:29:48.544Z,87.52
2022-11-18T00:34:50.377Z,87.38
2022-11-18T00:39:52.249Z,87.34
2022-11-18T00:44:54.238Z,87.46
2022-11-18T00:49:56.124Z,87.40
2022-11-18T00:54:58.075Z,87.50
2022-11-18T01:00:00.147Z,87.39
2022-11-18T01:05:02.044Z,87.46
2022-11-18T01:10:04.315Z,87.51
2022-11-18T01:15:06.605Z,87.29
2022-11-18T01:20:08.999Z,87.48
2022-11-18T01:25:11.045Z,87.45
2022-11-18T01:30:13.510Z,87.53
2022-11-18T01:35:15.686Z,87.64
2022-11-18T01:40:17.655Z,87.45
2022-11-18T01:45:29.030Z,87.54
2022-11-18T01:50:32.981Z,87.38
2022-11-18T01:55:41.838Z,87.21
2022-11-18T02:00:43.716Z,87.44
2022-11-18T02:05:48.283Z,87.51
2022-11-18T02:10:50.129Z,87.34
2022-11-18T02:16:13.995Z,87.53
2022-11-18T02:21:39.880Z,87.50
2022-11-18T02:27:21.997Z,87.58
2022-11-18T02:32:32.134Z,87.52
2022-11-18T02:37:46.894Z,87.42
2022-11-18T02:42:55.513Z,87.46
2022-11-18T02:48:05.692Z,87.62
2022-11-18T02:53:11.071Z,87.77
2022-11-18T02:58:16.622Z,87.45
2022-11-18T03:03:33.726Z,87.58
2022-11-18T03:08:43.232Z,87.39
2022-11-18T03:14:37.879Z,87.45
2022-11-18T03:19:51.507Z,87.42
2022-11-18T03:25:30.034Z,87.47
2022-11-18T03:30:34.536Z,87.21
2022-11-18T03:35:41.860Z,87.36
2022-11-18T03:40:53.129Z,87.50
2022-11-18T03:46:08.663Z,87.45
2022-11-18T03:51:15.304Z,87.43
2022-11-18T03:56:22.746Z,87.67
2022-11-18T04:01:31.780Z,87.54
2022-11-18T04:06:48.352Z,87.55
2022-11-18T04:12:03.072Z,87.47
2022-11-18T04:17:17.055Z,87.60
2022-11-18T04:22:19.422Z,87.70
2022-11-18T04:27:21.292Z,87.50
2022-11-18T04:32:23.271Z,87.53
2022-11-18T04:37:25.669Z,87.78
2022-11-18T04:42:28.274Z,87.62
2022-11-18T04:47:30.354Z,87.61
2022-11-18T04:52:32.163Z,87.64
2022-11-18T04:57:33.937Z,87.65
2022-11-18T05:02:35.973Z,87.39
2022-11-18T05:07:37.807Z,87.67
2022-11-18T05:12:49.011Z,87.80
2022-11-18T05:17:52.132Z,87.74
2022-11-18T05:22:54.066Z,87.84
2022-11-18T05:27:56.177Z,87.75
2022-11-18T05:32:58.076Z,87.84
2022-11-18T05:38:01.755Z,87.93
2022-11-18T05:43:12.743Z,87.81
2022-11-18T05:48:14.754Z,87.54
2022-11-18T05:53:19.075Z,87.70
2022-11-18T05:58:21.353Z,87.60
2022-11-18T06:03:30.917Z,87.70
2022-11-18T06:08:42.272Z,87.48
2022-11-18T06:14:03.771Z,87.62
2022-11-18T06:19:07.394Z,87.47
2022-11-18T06:24:10.152Z,87.61
2022-11-18T06:29:15.151Z,87.47
2022-11-18T06:34:17.686Z,87.15
2022-11-18T06:39:20.027Z,87.14
2022-11-18T06:44:22.537Z,86.96
2022-11-18T06:49:26.008Z,86.99
2022-11-18T06:54:27.864Z,87.02
2022-11-18T06:59:29.728Z,87.16
2022-11-18T07:04:33.695Z,87.15
2022-11-18T07:09:36.864Z,87.05
2022-11-18T07:14:38.753Z,86.76
2022-11-18T07:19:40.690Z,86.79
2022-11-18T07:24:43.426Z,87.02
2022-11-18T07:29:45.148Z,86.84
2022-11-18T07:34:46.983Z,86.76
2022-11-18T07:39:48.730Z,86.95
2022-11-18T07:44:50.527Z,86.75
2022-11-18T07:49:52.336Z,86.76
2022-11-18T07:54:54.372Z,86.65
2022-11-18T07:59:56.261Z,86.40
2022-11-18T08:04:58.084Z,86.16
2022-11-18T08:09:59.864Z,86.35
2022-11-18T08:15:01.684Z,86.54
2022-11-18T08:20:03.814Z,86.29
2022-11-18T08:25:05.972Z,85.98
2022-11-18T08:30:08.660Z,85.98
2022-11-18T08:35:11.558Z,86.20
2022-11-18T08:40:13.952Z,86.13
2022-11-18T08:45:15.908Z,86.01
2022-11-18T08:50:17.914Z,85.98
2022-11-18T08:55:19.748Z,86.15
2022-11-18T09:00:21.614Z,85.91
2022-11-18T09:05:23.473Z,85.88
2022-11-18T09:10:25.317Z,85.87
2022-11-18T09:15:29.698Z,85.87
2022-11-18T09:20:31.541Z,85.78
2022-11-18T09:25:33.409Z,85.91
2022-11-18T09:30:35.238Z,85.60
2022-11-18T09:35:42.415Z,85.62
2022-11-18T09:41:12.784Z,85.70
2022-11-18T09:46:33.964Z,85.41
2022-11-18T09:51:49.774Z,85.39
2022-11-18T09:56:54.194Z,85.12
2022-11-18T10:02:03.311Z,85.46
2022-11-18T10:07:19.279Z,85.26
2022-11-18T10:12:37.311Z,85.24
2022-11-18T10:17:57.347Z,85.25
2022-11-18T10:23:15.879Z,84.87
2022-11-18T10:28:30.911Z,84.87
2022-11-18T10:33:33.420Z,84.82
2022-11-18T10:38:35.317Z,84.73
2022-11-18T10:43:52.184Z,84.56
2022-11-18T10:49:09.150Z,84.63
2022-11-18T10:54:19.365Z,84.55
2022-11-18T10:59:35.089Z,84.52
2022-11-18T11:04:38.567Z,84.49
2022-11-18T11:09:40.556Z,84.37
2022-11-18T11:14:57.644Z,84.39
2022-11-18T11:20:20.893Z,84.31
2022-11-18T11:31:20.369Z,84.08
2022-11-18T11:36:22.256Z,84.13
2022-11-18T11:41:24.817Z,83.69
2022-11-18T11:47:14.516Z,84.03
2022-11-18T11:52:28.204Z,83.95
2022-11-18T11:58:01.382Z,83.75
2022-11-18T12:03:14.428Z,83.60
2022-11-18T12:08:31.127Z,83.59
2022-11-18T12:13:53.060Z,83.78
2022-11-18T12:19:18.157Z,83.55
2022-11-18T12:24:23.138Z,83.76
2022-11-18T12:29:27.935Z,83.39
2022-11-18T12:34:37.444Z,83.41
2022-11-18T12:39:41.947Z,83.53
2022-11-18T12:44:46.386Z,83.23
2022-11-18T12:49:48.197Z,83.25
2022-11-18T12:54:50.907Z,83.21
2022-11-18T12:59:52.775Z,83.23
2022-11-18T13:05:11.095Z,83.03
2022-11-18T13:10:23.737Z,83.17
2022-11-18T13:15:44.613Z,82.74
2022-11-18T13:21:30.887Z,82.79
2022-11-18T13:26:34.675Z,82.71
2022-11-18T13:31:48.739Z,82.67
2022-11-18T13:36:52.939Z,82.87
2022-11-18T13:42:04.308Z,82.89
2022-11-18T13:47:06.296Z,82.68
2022-11-18T13:52:18.989Z,82.30
2022-11-18T13:57:23.559Z,82.17
2022-11-18T14:02:25.449Z,82.08
2022-11-18T14:07:35.545Z,82.06
2022-11-18T14:12:40.788Z,82.15
2022-11-18T14:18:02.022Z,82.16
2022-11-18T14:23:05.676Z,82.34
2022-11-18T14:28:27.031Z,82.07
2022-11-18T14:33:30.116Z,81.93
2022-11-18T14:44:01.628Z,81.90
2022-11-18T14:49:06.554Z,81.63
2022-11-18T14:54:14.051Z,81.60
2022-11-18T14:59:19.092Z,81.90
2022-11-18T15:04:22.161Z,81.68
2022-11-18T15:09:24.865Z,81.65
2022-11-18T15:14:26.614Z,81.69
2022-11-18T15:19:31.988Z,81.75
2022-11-18T15:24:34.026Z,81.49
2022-11-18T15:29:35.905Z,81.05
2022-11-18T15:34:37.773Z,81.30
2022-11-18T15:39:39.894Z,81.10
2022-11-18T15:44:41.915Z,81.07
2022-11-18T15:49:45.433Z,80.87
2022-11-18T15:54:48.518Z,81.28
2022-11-18T15:59:50.333Z,80.75
2022-11-18T16:04:54.769Z,80.97
2022-11-18T16:10:15.074Z,80.87
2022-11-18T16:15:36.386Z,80.60
2022-11-18T16:20:38.209Z,80.56
2022-11-18T16:25:44.649Z,80.44
2022-11-18T16:31:09.115Z,80.44
2022-11-18T16:36:10.912Z,80.31
2022-11-18T16:41:31.285Z,80.19
2022-11-18T16:46:35.095Z,80.30
2022-11-18T16:51:37.008Z,80.06
2022-11-18T16:56:40.594Z,80.31
2022-11-18T17:01:42.917Z,80.10
2022-11-18T17:06:48.564Z,80.19
2022-11-18T17:11:52.347Z,80.29
2022-11-18T17:16:54.282Z,80.11
2022-11-18T17:21:56.656Z,79.93
2022-11-18T17:26:58.546Z,80.30
2022-11-18T17:32:01.527Z,80.06
2022-11-18T17:37:06.983Z,80.04
2022-11-18T17:42:15.106Z,79.81
2022-11-18T17:47:18.176Z,79.79
2022-11-18T17:52:20.074Z,79.75
2022-11-18T17:57:21.999Z,79.63
2022-11-18T18:02:24.026Z,79.66
2022-11-18T18:07:25.944Z,79.60
2022-11-18T18:12:46.202Z,79.47
2022-11-18T18:17:48.620Z,79.42
2022-11-18T18:22:50.449Z,79.26
2022-11-18T18:27:52.977Z,79.34
2022-11-18T18:32:54.807Z,79.13
2022-11-18T18:37:56.719Z,79.04
2022-11-18T18:42:58.578Z,78.95
2022-11-18T18:48:03.993Z,78.84
2022-11-18T18:53:05.908Z,79.00
2022-11-18T18:58:08.717Z,78.74
2022-11-18T19:03:10.795Z,78.63
2022-11-18T19:08:12.842Z,78.70
2022-11-18T19:13:14.742Z,78.39
2022-11-18T19:18:16.706Z,78.65
2022-11-18T19:23:19.626Z,78.26
2022-11-18T19:28:21.563Z,78.25
2022-11-18T19:33:23.557Z,78.07
2022-11-18T19:38:25.333Z,78.07
2022-11-18T19:43:27.442Z,77.94
2022-11-18T19:48:29.832Z,77.86
2022-11-18T19:53:32.091Z,77.76
2022-11-18T19:58:36.458Z,77.61
2022-11-18T20:03:38.558Z,77.48
2022-11-18T20:08:41.184Z,77.46
2022-11-18T20:13:44.499Z,77.59
2022-11-18T20:18:48.842Z,77.20
2022-11-18T20:23:58.698Z,77.00
2022-11-18T20:29:00.714Z,76.94
2022-11-18T20:34:03.046Z,77.07
2022-11-18T20:39:07.685Z,76.91
2022-11-18T20:44:09.575Z,76.68
2022-11-18T20:49:11.612Z,76.57
2022-11-18T20:54:13.718Z,76.82
2022-11-18T20:59:15.718Z,76.83
2022-11-18T21:04:17.821Z,76.79
2022-11-18T21:09:19.932Z,76.90
2022-11-18T21:14:25.536Z,76.73
2022-11-18T21:19:28.869Z,76.64
2022-11-18T21:24:33.058Z,76.72
2022-11-18T21:29:34.981Z,76.78
2022-11-18T21:34:36.873Z,76.72
2022-11-18T21:39:41.428Z,76.49
2022-11-18T21:44:43.248Z,76.63
2022-11-18T21:49:45.281Z,76.69
2022-11-18T21:54:47.124Z,76.69
2022-11-18T21:59:49.126Z,76.59
2022-11-18T22:04:53.831Z,76.60
2022-11-18T22:09:55.677Z,76.82
2022-11-18T22:14:57.466Z,76.66
2022-11-18T22:19:59.203Z,76.79
2022-11-18T22:25:01.012Z,76.59
2022-11-18T22:30:02.793Z,76.64
2022-11-18T22:35:04.895Z,76.47
2022-11-18T22:40:07.657Z,76.34
2022-11-18T22:45:09.667Z,76.54
2022-11-18T22:50:11.484Z,76.60
2022-11-18T22:55:13.262Z,76.44
2022-11-18T23:00:16.400Z,76.61
2022-11-18T23:05:18.400Z,76.53
2022-11-18T23:10:20.249Z,76.49
2022-11-18T23:15:22.149Z,76.32
2022-11-18T23:20:23.975Z,76.42
2022-11-18T23:25:25.795Z,76.44
2022-11-18T23:30:27.807Z,76.62
2022-11-18T23:35:29.709Z,76.48
2022-11-18T23:40:31.797Z,76.50
2022-11-18T23:45:33.644Z,76.41
2022-11-18T23:50:39.315Z,76.46
2022-11-18T23:55:41.393Z,76.25
